Time;durP1;ratioP1;P1;durP2;ratioP2;P2;SDS_P1;SDS_P2;PMS_P1;PMS_P2;Temp;Humidity;BMP_temperature;BMP_pressure;BME280_temperature;BME280_humidity;BME280_pressure;Samples;Min_cycle;Max_cycle;Signal;HPM_P1;HPM_P2
2022/08/07 00:01:56;;;;;;;1.45;0.70;;;23.60;60.40;;;;;;5079802;27;46708;-67
2022/08/07 00:04:22;;;;;;;1.67;0.82;;;23.50;60.30;;;;;;5049549;27;45389;-67
2022/08/07 00:06:50;;;;;;;1.05;0.70;;;23.60;60.30;;;;;;5038066;28;45297;-68
2022/08/07 00:09:17;;;;;;;1.05;0.77;;;23.60;60.30;;;;;;5030473;28;45443;-67
2022/08/07 00:11:44;;;;;;;1.52;0.82;;;23.50;60.30;;;;;;5039937;28;46181;-67
2022/08/07 00:14:11;;;;;;;1.25;0.75;;;23.50;60.30;;;;;;5040745;28;45305;-67
2022/08/07 00:16:38;;;;;;;1.23;0.80;;;23.60;60.50;;;;;;5047408;27;45269;-68
2022/08/07 00:19:05;;;;;;;0.70;0.60;;;23.50;60.50;;;;;;5077412;27;45490;-67
2022/08/07 00:21:31;;;;;;;0.80;0.60;;;23.50;60.50;;;;;;5095009;27;45537;-67
2022/08/07 00:23:59;;;;;;;1.30;0.70;;;23.50;60.50;;;;;;5024473;27;45381;-68
2022/08/07 00:26:26;;;;;;;1.15;0.80;;;23.50;60.50;;;;;;5067625;27;45404;-67
2022/08/07 00:28:53;;;;;;;1.10;0.80;;;23.50;60.60;;;;;;5038808;27;45280;-67
2022/08/07 00:31:20;;;;;;;1.15;0.68;;;23.50;60.60;;;;;;5046247;28;46257;-67
2022/08/07 00:33:46;;;;;;;0.75;0.60;;;23.50;60.60;;;;;;5049901;27;45337;-67
2022/08/07 00:36:13;;;;;;;0.73;0.63;;;23.50;60.60;;;;;;5080407;27;45509;-67
2022/08/07 00:38:40;;;;;;;0.93;0.80;;;23.50;60.70;;;;;;5031416;27;45428;-67
2022/08/07 00:41:08;;;;;;;1.15;0.80;;;23.50;60.70;;;;;;5068429;27;47313;-67
2022/08/07 00:43:35;;;;;;;2.53;0.73;;;23.50;60.80;;;;;;5054683;27;45352;-67
2022/08/07 00:46:03;;;;;;;0.80;0.80;;;23.50;60.70;;;;;;5085891;27;45385;-68
2022/08/07 00:48:30;;;;;;;1.17;0.75;;;23.50;60.80;;;;;;5074005;27;45264;-68
2022/08/07 00:50:57;;;;;;;1.15;0.68;;;23.50;61.00;;;;;;5065428;27;46428;-67
2022/08/07 00:53:24;;;;;;;0.68;0.68;;;23.50;61.10;;;;;;5037964;27;45745;-68
2022/08/07 00:55:51;;;;;;;1.92;0.70;;;23.50;61.00;;;;;;5067332;27;45324;-67
2022/08/07 00:58:21;;;;;;;1.20;0.60;;;23.50;61.00;;;;;;5034707;27;45285;-67
2022/08/07 01:00:48;;;;;;;1.08;0.90;;;23.50;61.10;;;;;;5072675;27;47370;-67
2022/08/07 01:03:15;;;;;;;1.75;0.98;;;23.50;61.20;;;;;;5071003;27;45404;-67
2022/08/07 01:05:44;;;;;;;1.63;0.77;;;23.50;61.10;;;;;;5033507;28;45548;-67
2022/08/07 01:08:11;;;;;;;1.27;0.80;;;23.50;61.10;;;;;;5036733;28;45471;-68
2022/08/07 01:10:38;;;;;;;0.93;0.75;;;23.50;61.00;;;;;;5031449;28;47325;-67
2022/08/07 01:13:05;;;;;;;0.95;0.75;;;23.50;61.00;;;;;;5036435;28;45480;-68
2022/08/07 01:15:34;;;;;;;0.75;0.68;;;23.50;60.80;;;;;;5037959;27;45318;-67
2022/08/07 01:18:01;;;;;;;1.35;0.75;;;23.50;60.80;;;;;;5037071;28;45759;-68
2022/08/07 01:20:42;;;;;;;0.93;0.70;;;23.50;60.90;;;;;;5037102;28;47286;-67
2022/08/07 01:23:10;;;;;;;1.40;0.80;;;23.50;60.80;;;;;;5024101;27;45266;-68
2022/08/07 01:25:39;;;;;;;1.58;0.77;;;23.50;60.90;;;;;;5040163;28;45388;-67
2022/08/07 01:28:06;;;;;;;1.10;0.80;;;23.50;61.00;;;;;;5023360;28;45729;-67
2022/08/07 01:30:33;;;;;;;2.33;0.85;;;23.50;60.90;;;;;;5019340;28;48125;-67
2022/08/07 01:33:00;;;;;;;1.20;0.80;;;23.50;61.00;;;;;;5019177;28;45291;-67
2022/08/07 01:35:27;;;;;;;2.08;1.27;;;23.50;61.10;;;;;;5029072;28;45328;-67
2022/08/07 01:37:54;;;;;;;1.13;0.85;;;23.50;61.00;;;;;;5040032;28;45275;-67
2022/08/07 01:40:24;;;;;;;2.05;0.82;;;23.50;61.00;;;;;;5039071;28;46604;-67
2022/08/07 01:42:51;;;;;;;2.80;1.10;;;23.50;61.10;;;;;;5021175;28;45366;-67
2022/08/07 01:45:20;;;;;;;1.25;0.90;;;23.50;61.20;;;;;;5018811;28;45480;-68
2022/08/07 01:47:48;;;;;;;1.42;0.93;;;23.40;61.00;;;;;;5019408;28;45590;-67
2022/08/07 01:50:15;;;;;;;0.90;0.70;;;23.40;61.00;;;;;;5019474;28;46636;-67
2022/08/07 01:52:45;;;;;;;1.83;0.98;;;23.40;61.10;;;;;;5035151;28;45458;-67
2022/08/07 01:55:14;;;;;;;0.88;0.80;;;23.40;61.20;;;;;;5059239;28;45318;-67
2022/08/07 01:57:43;;;;;;;1.75;0.90;;;23.50;61.40;;;;;;5050901;28;45415;-67
2022/08/07 02:00:12;;;;;;;1.00;0.90;;;23.50;61.40;;;;;;5056881;28;45466;-67
2022/08/07 02:02:44;;;;;;;1.55;0.80;;;23.50;61.50;;;;;;5038568;28;45536;-67
2022/08/07 02:05:17;;;;;;;1.55;1.00;;;23.50;61.50;;;;;;5039545;28;45314;-67
2022/08/07 02:07:52;;;;;;;3.05;1.00;;;23.50;61.60;;;;;;5036544;28;45278;-68
2022/08/07 02:10:23;;;;;;;1.60;1.00;;;23.50;61.40;;;;;;5039082;28;45534;-67
2022/08/07 02:12:52;;;;;;;1.85;1.00;;;23.50;61.40;;;;;;5038873;28;45260;-67
2022/08/07 02:15:22;;;;;;;1.25;0.80;;;23.50;61.10;;;;;;5039145;28;45445;-67
2022/08/07 02:17:50;;;;;;;2.00;1.10;;;23.40;61.10;;;;;;5036386;28;45496;-67
2022/08/07 02:20:18;;;;;;;1.58;0.93;;;23.40;61.10;;;;;;5038101;28;45376;-67
2022/08/07 02:22:47;;;;;;;0.98;0.73;;;23.40;61.20;;;;;;5038953;28;45382;-67
2022/08/07 02:25:17;;;;;;;1.50;0.98;;;23.40;61.20;;;;;;5039015;28;45391;-67
2022/08/07 02:27:45;;;;;;;1.20;0.98;;;23.40;61.20;;;;;;5030499;28;45507;-67
2022/08/07 02:30:14;;;;;;;1.17;0.88;;;23.40;61.00;;;;;;5035264;28;47690;-67
2022/08/07 02:32:42;;;;;;;1.02;0.90;;;23.40;61.10;;;;;;5023983;28;45279;-67
2022/08/07 02:35:10;;;;;;;1.85;1.05;;;23.40;61.00;;;;;;5038090;28;45398;-68
2022/08/07 02:37:40;;;;;;;1.98;0.80;;;23.40;61.30;;;;;;5018973;28;45310;-67
2022/08/07 02:40:10;;;;;;;1.42;0.90;;;23.40;61.20;;;;;;5018816;28;47371;-67
2022/08/07 02:42:37;;;;;;;1.30;0.80;;;23.40;61.20;;;;;;5033343;28;45777;-67
2022/08/07 02:45:06;;;;;;;0.77;0.77;;;23.40;61.20;;;;;;5038470;28;45288;-66
2022/08/07 02:47:34;;;;;;;1.13;0.70;;;23.40;61.20;;;;;;5037334;28;45257;-67
2022/08/07 02:50:01;;;;;;;1.80;1.00;;;23.40;61.10;;;;;;5038484;28;46306;-67
2022/08/07 02:52:36;;;;;;;1.50;0.98;;;23.40;61.00;;;;;;5037714;28;45393;-67
2022/08/07 02:55:21;;;;;;;1.08;0.82;;;23.40;61.00;;;;;;5038637;28;45358;-67
2022/08/07 02:57:50;;;;;;;1.90;1.00;;;23.40;60.90;;;;;;5035642;28;45322;-67
2022/08/07 03:00:17;;;;;;;1.13;0.93;;;23.40;60.90;;;;;;5036052;28;47244;-68
2022/08/07 03:02:48;;;;;;;0.75;0.75;;;23.40;60.80;;;;;;5038901;28;45289;-67
2022/08/07 03:05:16;;;;;;;1.10;1.00;;;23.40;60.90;;;;;;5040896;28;45411;-68
2022/08/07 03:07:44;;;;;;;1.10;1.00;;;23.40;60.90;;;;;;5040932;28;45513;-67
2022/08/07 03:10:11;;;;;;;1.83;1.02;;;23.40;61.00;;;;;;5040271;28;46087;-67
2022/08/07 03:12:39;;;;;;;1.33;0.85;;;23.40;61.00;;;;;;5041013;28;46198;-67
2022/08/07 03:15:08;;;;;;;2.17;1.05;;;23.40;61.00;;;;;;5041449;28;45475;-67
2022/08/07 03:17:36;;;;;;;0.98;0.88;;;23.40;61.00;;;;;;5041308;28;45413;-67
2022/08/07 03:20:05;;;;;;;1.05;0.90;;;23.40;60.90;;;;;;5041612;28;46389;-67
2022/08/07 03:22:34;;;;;;;1.13;0.88;;;23.40;60.80;;;;;;5040378;28;45349;-68
2022/08/07 03:25:00;;;;;;;1.15;0.80;;;23.40;60.80;;;;;;5041280;28;45466;-67
2022/08/07 03:27:28;;;;;;;1.40;1.10;;;23.40;60.90;;;;;;5041294;28;45450;-68
2022/08/07 03:29:56;;;;;;;1.08;0.95;;;23.40;60.80;;;;;;5067091;27;46384;-67
2022/08/07 03:32:28;;;;;;;0.82;0.77;;;23.40;60.80;;;;;;5037880;27;45239;-68
2022/08/07 03:34:58;;;;;;;1.55;0.90;;;23.40;60.80;;;;;;5035551;27;45312;-67
2022/08/07 03:37:30;;;;;;;1.08;0.90;;;23.30;60.50;;;;;;5038979;28;45516;-67
2022/08/07 03:39:58;;;;;;;1.40;1.10;;;23.30;60.40;;;;;;5033528;27;48707;-67
2022/08/07 03:42:25;;;;;;;1.45;0.93;;;23.30;60.50;;;;;;5037647;28;45292;-67
2022/08/07 03:44:52;;;;;;;1.10;0.95;;;23.30;60.40;;;;;;5034639;28;45365;-68
2022/08/07 03:47:20;;;;;;;0.80;0.80;;;23.30;60.40;;;;;;5020272;28;45314;-67
2022/08/07 03:49:47;;;;;;;1.35;0.80;;;23.30;60.40;;;;;;5020798;28;46304;-67
2022/08/07 03:52:17;;;;;;;0.80;0.70;;;23.30;60.40;;;;;;5034356;28;46573;-67
2022/08/07 03:54:45;;;;;;;1.00;0.90;;;23.30;60.50;;;;;;5046944;28;45374;-68
2022/08/07 03:57:13;;;;;;;0.82;0.75;;;23.30;60.50;;;;;;5040451;28;45434;-72
2022/08/07 03:59:41;;;;;;;1.30;0.93;;;23.30;60.40;;;;;;5035657;27;45341;-67
2022/08/07 04:02:08;;;;;;;0.80;0.80;;;23.30;60.30;;;;;;5037743;27;45296;-67
2022/08/07 04:04:35;;;;;;;1.02;0.88;;;23.30;60.30;;;;;;5037963;28;45305;-67
2022/08/07 04:07:03;;;;;;;1.00;0.80;;;23.30;60.30;;;;;;5036841;28;45348;-68
2022/08/07 04:09:32;;;;;;;1.20;1.00;;;23.40;60.40;;;;;;5037555;28;46421;-69
2022/08/07 04:12:00;;;;;;;1.08;0.90;;;23.30;60.30;;;;;;5037248;28;45522;-67
2022/08/07 04:14:28;;;;;;;1.38;1.00;;;23.30;60.10;;;;;;5036248;27;45490;-68
2022/08/07 04:16:55;;;;;;;0.82;0.82;;;23.30;60.10;;;;;;5040702;28;45316;-67
2022/08/07 04:19:24;;;;;;;0.98;0.88;;;23.40;60.20;;;;;;5037213;28;47259;-67
2022/08/07 04:21:51;;;;;;;0.80;0.80;;;23.30;60.00;;;;;;5038173;27;45461;-67
2022/08/07 04:24:18;;;;;;;1.00;0.90;;;23.30;60.00;;;;;;5037784;28;45525;-67
2022/08/07 04:26:45;;;;;;;1.45;0.93;;;23.30;60.10;;;;;;5038481;28;45394;-66
2022/08/07 04:29:13;;;;;;;1.23;0.90;;;23.40;60.00;;;;;;5037842;28;48420;-67
2022/08/07 04:31:40;;;;;;;0.68;0.68;;;23.40;60.00;;;;;;5038088;28;45755;-67
2022/08/07 04:34:09;;;;;;;2.00;0.90;;;23.40;60.10;;;;;;5038676;28;45257;-67
2022/08/07 04:36:36;;;;;;;0.85;0.60;;;23.30;60.00;;;;;;5038780;28;45372;-67
2022/08/07 04:39:04;;;;;;;1.10;0.98;;;23.30;60.00;;;;;;5038378;28;45265;-67
2022/08/07 04:41:32;;;;;;;1.58;0.80;;;23.40;60.10;;;;;;5029899;28;45639;-67
2022/08/07 04:44:01;;;;;;;1.00;0.90;;;23.30;60.10;;;;;;5038905;28;45462;-67
2022/08/07 04:46:39;;;;;;;1.63;1.05;;;23.40;60.30;;;;;;5038946;28;45751;-67
2022/08/07 04:49:15;;;;;;;1.25;1.00;;;23.30;60.00;;;;;;5048745;28;48168;-67
2022/08/07 04:51:49;;;;;;;0.75;0.75;;;23.30;60.10;;;;;;5036767;28;45310;-68
2022/08/07 04:54:22;;;;;;;1.15;0.90;;;23.40;60.20;;;;;;5037687;27;45414;-67
2022/08/07 04:56:54;;;;;;;1.30;1.02;;;23.40;60.30;;;;;;5066190;27;45460;-67
2022/08/07 04:59:30;;;;;;;1.00;0.90;;;23.40;60.20;;;;;;5046906;27;47290;-68
2022/08/07 05:02:03;;;;;;;1.77;0.85;;;23.40;60.30;;;;;;5054991;27;45261;-68
2022/08/07 05:04:37;;;;;;;1.40;1.05;;;23.30;60.40;;;;;;5072021;27;45384;-68
2022/08/07 05:07:13;;;;;;;1.27;0.93;;;23.40;60.50;;;;;;5031225;27;45478;-67
2022/08/07 05:09:48;;;;;;;1.02;0.90;;;23.40;60.30;;;;;;5074680;27;46256;-67
2022/08/07 05:12:19;;;;;;;1.15;0.90;;;23.40;60.30;;;;;;5044526;27;45303;-67
2022/08/07 05:14:48;;;;;;;1.15;0.90;;;23.30;59.80;;;;;;5088726;27;45262;-67
2022/08/07 05:17:20;;;;;;;1.17;1.00;;;23.30;59.70;;;;;;5042698;27;45384;-67
2022/08/07 05:19:49;;;;;;;1.40;1.08;;;23.30;59.50;;;;;;5037964;28;45493;-67
2022/08/07 05:22:18;;;;;;;1.23;1.02;;;23.30;59.40;;;;;;5036038;28;45398;-67
2022/08/07 05:24:47;;;;;;;2.33;1.17;;;23.30;59.50;;;;;;5037652;28;45468;-67
2022/08/07 05:27:15;;;;;;;1.05;0.95;;;23.30;60.10;;;;;;5036831;28;45560;-67
2022/08/07 05:29:43;;;;;;;1.02;0.93;;;23.30;60.20;;;;;;5038323;27;46096;-67
2022/08/07 05:32:12;;;;;;;1.15;0.90;;;23.30;60.60;;;;;;5037605;27;45530;-67
2022/08/07 05:34:41;;;;;;;1.08;0.80;;;23.40;60.90;;;;;;5038279;28;45495;-67
2022/08/07 05:37:09;;;;;;;1.10;1.00;;;23.40;61.20;;;;;;5037321;28;45360;-67
2022/08/07 05:39:37;;;;;;;0.88;0.85;;;23.40;61.20;;;;;;5037891;28;46604;-67
2022/08/07 05:42:05;;;;;;;1.05;0.93;;;23.30;61.10;;;;;;5036801;28;45302;-68
2022/08/07 05:44:35;;;;;;;1.10;1.00;;;23.40;61.40;;;;;;5030386;28;45391;-67
2022/08/07 05:47:03;;;;;;;2.20;0.95;;;23.40;61.50;;;;;;5037419;28;45554;-69
2022/08/07 05:49:30;;;;;;;1.05;0.82;;;23.40;61.50;;;;;;5037666;28;47718;-67
2022/08/07 05:51:58;;;;;;;1.25;1.00;;;23.40;61.60;;;;;;5036360;28;45471;-67
2022/08/07 05:54:25;;;;;;;3.05;1.05;;;23.50;61.70;;;;;;5039596;28;45374;-68
2022/08/07 05:56:54;;;;;;;1.08;0.98;;;23.40;62.60;;;;;;5040223;27;45424;-67
2022/08/07 05:59:25;;;;;;;0.85;0.80;;;23.40;61.70;;;;;;5035514;28;47097;-69
2022/08/07 06:01:52;;;;;;;1.35;0.90;;;23.50;61.90;;;;;;5033199;28;45371;-67
2022/08/07 06:04:22;;;;;;;1.00;0.90;;;23.50;62.00;;;;;;5034996;28;45237;-68
2022/08/07 06:06:49;;;;;;;1.48;0.90;;;23.50;62.20;;;;;;5035035;27;45675;-68
2022/08/07 06:09:18;;;;;;;1.20;0.82;;;23.50;62.30;;;;;;5035604;28;45366;-68
2022/08/07 06:11:45;;;;;;;1.20;0.90;;;23.50;62.40;;;;;;5033049;27;46050;-67
2022/08/07 06:14:12;;;;;;;1.40;0.73;;;23.50;62.50;;;;;;5035546;27;45846;-67
2022/08/07 06:16:40;;;;;;;1.02;0.82;;;23.50;62.50;;;;;;5036591;28;45392;-67
2022/08/07 06:19:07;;;;;;;1.65;0.85;;;23.50;62.40;;;;;;5035869;27;45443;-67
2022/08/07 06:21:35;;;;;;;1.00;0.90;;;23.50;62.40;;;;;;5037119;28;45344;-67
2022/08/07 06:24:04;;;;;;;1.20;0.80;;;23.50;62.40;;;;;;5036757;28;45369;-67
2022/08/07 06:26:32;;;;;;;0.70;0.70;;;23.50;62.50;;;;;;5034456;27;45479;-67
2022/08/07 06:28:59;;;;;;;1.42;0.80;;;23.50;62.60;;;;;;5034203;28;47487;-67
2022/08/07 06:31:26;;;;;;;1.05;0.85;;;23.50;62.70;;;;;;5034368;28;45619;-67
2022/08/07 06:33:53;;;;;;;1.55;0.90;;;23.50;62.70;;;;;;5035509;28;45390;-68
2022/08/07 06:36:20;;;;;;;1.10;0.82;;;23.40;62.70;;;;;;5035235;28;45662;-67
2022/08/07 06:38:47;;;;;;;1.10;0.85;;;23.50;62.80;;;;;;5038288;27;45475;-67
2022/08/07 06:41:23;;;;;;;0.95;0.80;;;23.50;62.80;;;;;;5035555;28;45356;-68
2022/08/07 06:43:53;;;;;;;1.17;0.70;;;23.50;62.90;;;;;;5041666;28;45442;-67
2022/08/07 06:46:21;;;;;;;1.85;0.95;;;23.50;62.90;;;;;;5039702;27;45809;-68
2022/08/07 06:48:48;;;;;;;1.25;0.75;;;23.50;63.00;;;;;;5038816;28;46600;-67
2022/08/07 06:51:18;;;;;;;0.88;0.85;;;23.50;63.10;;;;;;5034388;27;45401;-67
2022/08/07 06:53:46;;;;;;;1.08;0.95;;;23.50;63.20;;;;;;5037386;28;45386;-67
2022/08/07 06:56:14;;;;;;;0.80;0.80;;;23.50;63.30;;;;;;5038165;28;45334;-67
2022/08/07 06:58:42;;;;;;;1.67;1.05;;;23.50;63.30;;;;;;5038133;27;47561;-67
2022/08/07 07:01:15;;;;;;;0.80;0.68;;;23.50;63.40;;;;;;5034976;28;46455;-68
2022/08/07 07:03:42;;;;;;;0.90;0.60;;;23.50;63.50;;;;;;5038264;28;45406;-67
2022/08/07 07:06:10;;;;;;;0.73;0.70;;;23.50;63.60;;;;;;5036185;28;45570;-68
2022/08/07 07:08:36;;;;;;;1.15;0.80;;;23.50;63.60;;;;;;5038151;28;46550;-67
2022/08/07 07:11:04;;;;;;;0.80;0.70;;;23.50;63.70;;;;;;5037265;28;45371;-67
2022/08/07 07:13:36;;;;;;;3.55;0.93;;;23.50;63.70;;;;;;5036126;27;45424;-67
2022/08/07 07:16:11;;;;;;;1.45;0.80;;;23.50;63.80;;;;;;5036246;28;45506;-68
2022/08/07 07:18:44;;;;;;;0.75;0.68;;;23.50;63.90;;;;;;5039795;28;46100;-68
2022/08/07 07:21:15;;;;;;;1.27;0.82;;;23.50;63.90;;;;;;5037688;27;45542;-67
2022/08/07 07:23:42;;;;;;;0.73;0.70;;;23.50;63.80;;;;;;5036157;27;45466;-67
2022/08/07 07:26:12;;;;;;;1.38;0.98;;;23.50;63.90;;;;;;5036583;28;45565;-67
2022/08/07 07:28:46;;;;;;;0.80;0.65;;;23.50;64.00;;;;;;5037618;27;45477;-69
2022/08/07 07:31:18;;;;;;;1.00;0.80;;;23.50;64.00;;;;;;5036864;27;45462;-67
2022/08/07 07:33:48;;;;;;;0.88;0.68;;;23.50;64.00;;;;;;5032415;28;45309;-67
2022/08/07 07:36:15;;;;;;;0.90;0.70;;;23.50;64.10;;;;;;5033122;28;45625;-67
2022/08/07 07:38:43;;;;;;;1.55;0.82;;;23.50;64.20;;;;;;5035534;27;47079;-66
2022/08/07 07:41:11;;;;;;;0.98;0.70;;;23.50;64.10;;;;;;5035790;28;45378;-68
2022/08/07 07:43:42;;;;;;;1.00;0.85;;;23.50;64.00;;;;;;5037784;28;45411;-67
2022/08/07 07:46:10;;;;;;;1.23;0.80;;;23.50;64.10;;;;;;5035660;28;45547;-67
2022/08/07 07:48:39;;;;;;;1.20;0.60;;;23.50;64.00;;;;;;5035449;27;48625;-67
2022/08/07 07:51:09;;;;;;;0.60;0.60;;;23.50;64.00;;;;;;5035520;28;45357;-67
2022/08/07 07:53:40;;;;;;;1.52;0.75;;;23.50;64.10;;;;;;5035702;27;45512;-67
2022/08/07 07:56:09;;;;;;;1.75;0.50;;;23.50;64.10;;;;;;5037916;28;45499;-67
2022/08/07 07:58:38;;;;;;;0.70;0.63;;;23.50;64.10;;;;;;5037868;28;45401;-67
2022/08/07 08:01:06;;;;;;;1.05;0.82;;;23.50;64.10;;;;;;5036059;27;45494;-67
2022/08/07 08:03:37;;;;;;;0.95;0.68;;;23.50;64.10;;;;;;5034055;27;45343;-67
2022/08/07 08:06:06;;;;;;;1.17;0.77;;;23.50;64.10;;;;;;5038238;27;45336;-67
2022/08/07 08:08:36;;;;;;;2.92;0.80;;;23.50;64.20;;;;;;5033308;28;48190;-68
2022/08/07 08:11:07;;;;;;;0.75;0.70;;;23.50;64.20;;;;;;5036403;27;45369;-67
2022/08/07 08:13:37;;;;;;;0.73;0.60;;;23.50;64.10;;;;;;5034011;28;45677;-67
2022/08/07 08:16:05;;;;;;;0.50;0.50;;;23.50;64.10;;;;;;5036694;28;45312;-67
2022/08/07 08:18:35;;;;;;;1.00;0.70;;;23.50;64.10;;;;;;5036392;28;46640;-67
2022/08/07 08:21:02;;;;;;;1.23;0.70;;;23.50;64.10;;;;;;5036206;27;45368;-68
2022/08/07 08:29:03;;;;;;;1.00;0.68;;;23.50;64.10;;;;;;5032789;28;45531;-67
2022/08/07 08:31:34;;;;;;;0.65;0.60;;;23.50;64.10;;;;;;5036649;27;45436;-67
2022/08/07 08:34:04;;;;;;;1.05;0.70;;;23.60;64.20;;;;;;5031007;28;45431;-67
2022/08/07 08:36:32;;;;;;;1.77;0.82;;;23.60;64.10;;;;;;5036477;28;45483;-67
2022/08/07 08:39:01;;;;;;;2.30;0.70;;;23.60;64.10;;;;;;5034732;28;47554;-69
2022/08/07 08:41:36;;;;;;;1.50;0.80;;;23.60;64.10;;;;;;5036989;27;45413;-68
2022/08/07 08:44:15;;;;;;;1.40;0.70;;;23.60;63.80;;;;;;5035538;27;45578;-68
2022/08/07 08:46:50;;;;;;;1.20;0.80;;;23.60;63.80;;;;;;5034044;28;45514;-67
2022/08/07 08:49:24;;;;;;;1.08;0.68;;;23.60;63.80;;;;;;5034903;27;48156;-68
2022/08/07 08:51:57;;;;;;;1.00;0.70;;;23.60;63.80;;;;;;5035145;28;45485;-68
2022/08/07 08:54:28;;;;;;;1.70;0.70;;;23.60;63.80;;;;;;5038641;27;45412;-67
2022/08/07 08:56:59;;;;;;;1.30;0.60;;;23.60;63.70;;;;;;5037059;28;45443;-68
2022/08/07 08:59:29;;;;;;;0.80;0.70;;;23.60;63.80;;;;;;5034387;28;45627;-69
2022/08/07 09:02:12;;;;;;;2.70;0.77;;;23.50;63.80;;;;;;5036532;27;45287;-68
2022/08/07 09:04:45;;;;;;;1.20;0.60;;;23.60;63.60;;;;;;5036416;28;45544;-68
2022/08/07 09:07:18;;;;;;;0.98;0.70;;;23.60;62.80;;;;;;5038682;28;45372;-67
2022/08/07 09:09:58;;;;;;;0.70;0.40;;;23.60;62.30;;;;;;5037922;28;46075;-68
2022/08/07 09:12:37;;;;;;;1.05;0.60;;;23.60;61.80;;;;;;5033086;28;45379;-68
2022/08/07 09:15:28;;;;;;;1.27;0.35;;;23.60;61.50;;;;;;5030512;28;45412;-68
2022/08/07 09:18:10;;;;;;;1.58;0.65;;;23.60;61.00;;;;;;5035268;28;45271;-68
2022/08/07 09:20:47;;;;;;;1.35;0.43;;;23.60;61.00;;;;;;5040095;27;45407;-68
2022/08/07 09:23:26;;;;;;;0.77;0.60;;;23.60;60.80;;;;;;5035842;28;45474;-68
2022/08/07 09:26:01;;;;;;;0.68;0.40;;;23.60;61.00;;;;;;5034138;28;45457;-68
2022/08/07 09:28:37;;;;;;;0.45;0.40;;;23.60;61.60;;;;;;5031268;28;45485;-69
2022/08/07 09:31:08;;;;;;;0.60;0.60;;;23.60;61.80;;;;;;5034694;27;48947;-68
2022/08/07 09:33:52;;;;;;;0.40;0.40;;;23.60;61.80;;;;;;5037920;28;45560;-67
2022/08/07 09:36:27;;;;;;;0.93;0.50;;;23.60;61.90;;;;;;5035710;28;45407;-67
2022/08/07 09:39:02;;;;;;;0.50;0.50;;;23.60;62.10;;;;;;5037378;28;45520;-67
2022/08/07 09:41:35;;;;;;;0.32;0.30;;;23.60;62.00;;;;;;5035701;28;47107;-67
2022/08/07 09:44:18;;;;;;;0.82;0.50;;;23.60;61.80;;;;;;5034370;28;45424;-68
2022/08/07 09:47:02;;;;;;;0.57;0.50;;;23.60;61.60;;;;;;5035978;28;45490;-68
2022/08/07 09:49:47;;;;;;;0.60;0.60;;;23.60;61.50;;;;;;5036940;28;45457;-68
2022/08/07 09:52:21;;;;;;;0.50;0.43;;;23.60;61.50;;;;;;5036006;27;45289;-68
2022/08/07 09:54:55;;;;;;;0.60;0.47;;;23.60;61.50;;;;;;5038071;28;45434;-68
2022/08/07 09:57:49;;;;;;;1.00;0.50;;;23.60;61.50;;;;;;5038274;28;45450;-68
2022/08/07 10:00:21;;;;;;;0.98;0.57;;;23.60;61.40;;;;;;5038290;28;45420;-68
2022/08/07 10:03:24;;;;;;;1.05;0.43;;;23.60;61.40;;;;;;5035910;28;45613;-67
2022/08/07 10:06:06;;;;;;;1.17;0.52;;;23.60;61.20;;;;;;5037319;27;45475;-68
2022/08/07 10:08:54;;;;;;;0.85;0.45;;;23.60;61.20;;;;;;5038179;28;45402;-68
2022/08/07 10:11:37;;;;;;;0.40;0.30;;;23.60;61.10;;;;;;5038108;28;45481;-68
2022/08/07 10:14:15;;;;;;;0.55;0.43;;;23.60;61.10;;;;;;5040444;28;48709;-68
2022/08/07 10:17:12;;;;;;;0.73;0.47;;;23.60;61.20;;;;;;5040822;28;45349;-68
2022/08/07 10:20:02;;;;;;;0.82;0.50;;;23.60;61.20;;;;;;5050379;28;45436;-68
2022/08/07 10:22:46;;;;;;;0.65;0.40;;;23.60;61.10;;;;;;5038669;28;45350;-67
2022/08/07 10:25:20;;;;;;;0.65;0.50;;;23.60;61.10;;;;;;5038742;28;46376;-68
2022/08/07 10:28:03;;;;;;;0.50;0.40;;;23.60;61.00;;;;;;5040133;28;45435;-68
2022/08/07 10:30:40;;;;;;;6.35;0.63;;;23.60;60.90;;;;;;5039332;27;45359;-68
2022/08/07 10:33:22;;;;;;;0.40;0.40;;;23.60;60.90;;;;;;5037614;28;45435;-67
2022/08/07 10:36:13;;;;;;;1.95;0.52;;;23.60;60.80;;;;;;5040603;28;46553;-67
2022/08/07 10:38:51;;;;;;;0.45;0.30;;;23.60;60.70;;;;;;5040382;28;45455;-68
2022/08/07 10:41:26;;;;;;;0.70;0.50;;;23.60;60.80;;;;;;5039680;28;45534;-68
2022/08/07 10:43:59;;;;;;;0.50;0.40;;;23.60;60.80;;;;;;5037034;28;45596;-67
2022/08/07 10:46:29;;;;;;;0.52;0.40;;;23.60;60.70;;;;;;5040461;28;45777;-68
2022/08/07 10:49:13;;;;;;;0.70;0.40;;;23.60;60.50;;;;;;5040466;28;46004;-67
2022/08/07 10:51:51;;;;;;;0.45;0.40;;;23.70;60.40;;;;;;5040249;28;45383;-68
2022/08/07 10:54:25;;;;;;;0.80;0.40;;;23.60;60.30;;;;;;5040705;27;45495;-67
2022/08/07 10:57:03;;;;;;;0.95;0.60;;;23.60;60.30;;;;;;5040507;28;47348;-68
2022/08/07 10:59:41;;;;;;;2.25;0.40;;;23.70;60.60;;;;;;5040955;28;45868;-67
2022/08/07 11:02:18;;;;;;;0.45;0.40;;;23.60;60.50;;;;;;5037622;28;45383;-67
2022/08/07 11:05:01;;;;;;;1.02;0.40;;;23.60;60.50;;;;;;5038780;27;45408;-68
2022/08/07 11:07:42;;;;;;;0.68;0.50;;;23.70;60.50;;;;;;5040338;28;47630;-68
2022/08/07 11:10:18;;;;;;;0.50;0.50;;;23.70;60.40;;;;;;5040386;28;46407;-67
2022/08/07 11:12:51;;;;;;;0.73;0.40;;;23.60;60.40;;;;;;5040020;28;45760;-68
2022/08/07 11:15:23;;;;;;;1.00;0.57;;;23.60;60.40;;;;;;5039966;28;45465;-68
2022/08/07 11:17:58;;;;;;;1.38;0.43;;;23.70;60.50;;;;;;5040395;28;46285;-67
2022/08/07 11:20:37;;;;;;;0.30;0.30;;;23.70;60.60;;;;;;5040502;27;45354;-68
2022/08/07 11:23:11;;;;;;;0.30;0.30;;;23.70;60.80;;;;;;5036504;28;45285;-69
2022/08/07 11:25:43;;;;;;;0.82;0.45;;;23.70;61.00;;;;;;5039856;28;45399;-67
2022/08/07 11:28:15;;;;;;;0.80;0.47;;;23.70;61.10;;;;;;5039998;27;46239;-67
2022/08/07 11:30:54;;;;;;;0.73;0.30;;;23.70;61.20;;;;;;5039751;28;45358;-68
2022/08/07 11:33:33;;;;;;;0.82;0.50;;;23.70;61.20;;;;;;5039628;28;45426;-68
2022/08/07 11:36:16;;;;;;;0.50;0.40;;;23.70;61.30;;;;;;5039591;28;45683;-68
2022/08/07 11:38:49;;;;;;;1.00;0.50;;;23.70;61.20;;;;;;5040209;27;45314;-68
2022/08/07 11:41:22;;;;;;;0.32;0.30;;;23.70;61.40;;;;;;5037566;28;45466;-68
2022/08/07 11:43:58;;;;;;;1.05;0.40;;;23.70;61.40;;;;;;5038399;27;45381;-68
2022/08/07 11:46:43;;;;;;;3.03;0.40;;;23.70;61.30;;;;;;5039880;28;45581;-68
2022/08/07 11:49:25;;;;;;;0.57;0.45;;;23.70;61.20;;;;;;5039594;28;46573;-69
2022/08/07 11:52:22;;;;;;;1.02;0.35;;;23.70;61.30;;;;;;5039448;28;46132;-68
2022/08/07 11:55:01;;;;;;;0.30;0.30;;;23.70;61.20;;;;;;5039659;27;45543;-67
2022/08/07 11:57:33;;;;;;;0.47;0.30;;;23.70;61.00;;;;;;5038326;28;45273;-68
2022/08/07 12:00:10;;;;;;;0.30;0.30;;;23.70;61.00;;;;;;5037702;28;45313;-68
2022/08/07 12:03:11;;;;;;;0.73;0.30;;;23.70;61.00;;;;;;5038799;27;45802;-67
2022/08/07 12:05:48;;;;;;;0.85;0.30;;;23.70;60.70;;;;;;5039734;28;45490;-68
2022/08/07 12:08:20;;;;;;;0.20;0.20;;;23.70;60.80;;;;;;5036858;28;45261;-67
2022/08/07 12:10:52;;;;;;;0.30;0.30;;;23.70;60.60;;;;;;5039949;28;45386;-68
2022/08/07 12:13:25;;;;;;;0.20;0.20;;;23.70;60.70;;;;;;5039543;28;45267;-67
2022/08/07 12:15:55;;;;;;;0.60;0.50;;;23.70;60.70;;;;;;5039328;28;45372;-68
2022/08/07 12:18:26;;;;;;;0.90;0.40;;;23.70;60.50;;;;;;5039858;27;45549;-67
2022/08/07 12:21:05;;;;;;;0.50;0.40;;;23.70;60.50;;;;;;5039295;28;48011;-68
2022/08/07 12:23:46;;;;;;;0.35;0.35;;;23.60;60.10;;;;;;5038882;28;45612;-68
2022/08/07 12:26:23;;;;;;;0.65;0.40;;;23.60;60.00;;;;;;5039488;28;45486;-68
2022/08/07 12:28:58;;;;;;;0.75;0.38;;;23.70;60.10;;;;;;5039740;27;45567;-67
2022/08/07 12:31:31;;;;;;;0.55;0.50;;;23.70;60.30;;;;;;5036305;28;46088;-67
2022/08/07 12:34:00;;;;;;;0.75;0.30;;;23.70;60.60;;;;;;5038393;28;45356;-67
2022/08/07 12:36:28;;;;;;;0.57;0.43;;;23.70;60.80;;;;;;5038552;27;45438;-68
2022/08/07 12:38:57;;;;;;;0.55;0.40;;;23.70;61.00;;;;;;5039700;28;45479;-68
2022/08/07 12:41:26;;;;;;;1.60;0.50;;;23.70;61.20;;;;;;5038170;28;47266;-68
2022/08/07 12:43:57;;;;;;;0.30;0.20;;;23.70;60.80;;;;;;5038428;28;45434;-69
2022/08/07 12:46:37;;;;;;;0.38;0.38;;;23.70;60.80;;;;;;5038740;28;45390;-68
2022/08/07 12:49:12;;;;;;;1.20;0.40;;;23.70;60.80;;;;;;5038333;27;45531;-68
2022/08/07 12:51:42;;;;;;;0.60;0.45;;;23.70;60.60;;;;;;5037945;28;46551;-68
2022/08/07 12:54:20;;;;;;;0.52;0.50;;;23.70;60.50;;;;;;5038397;28;45366;-68
2022/08/07 12:56:51;;;;;;;0.75;0.50;;;23.70;60.30;;;;;;5038914;28;45630;-67
2022/08/07 12:59:22;;;;;;;1.38;0.52;;;23.70;60.50;;;;;;5039445;28;45324;-67
2022/08/07 13:02:01;;;;;;;0.65;0.60;;;23.70;60.40;;;;;;5037198;28;47983;-69
2022/08/07 13:04:48;;;;;;;0.60;0.50;;;23.70;60.60;;;;;;5039169;27;45419;-67
2022/08/07 13:07:30;;;;;;;0.73;0.60;;;23.70;60.60;;;;;;5039411;28;45259;-68
2022/08/07 13:10:17;;;;;;;0.60;0.60;;;23.70;60.60;;;;;;5039130;27;45419;-67
2022/08/07 13:13:01;;;;;;;1.27;0.88;;;23.70;60.40;;;;;;5038057;28;46440;-67
2022/08/07 13:15:36;;;;;;;1.33;0.70;;;23.70;60.30;;;;;;5038566;28;45345;-67
2022/08/07 13:18:15;;;;;;;0.65;0.55;;;23.70;60.30;;;;;;5039601;27;45529;-68